sensor_id;sensor_type;location;lat;lon;timestamp;P1;durP1;ratioP1;P2;durP2;ratioP2
15567;SDS011;7885;42.596;23.044;2022-08-14T00:01:13;17.40;;;14.17;;
15567;SDS011;7885;42.596;23.044;2022-08-14T00:03:39;16.33;;;14.67;;
15567;SDS011;7885;42.596;23.044;2022-08-14T00:06:07;17.03;;;14.13;;
15567;SDS011;7885;42.596;23.044;2022-08-14T00:08:34;18.33;;;15.53;;
15567;SDS011;7885;42.596;23.044;2022-08-14T00:11:00;16.73;;;15.23;;
15567;SDS011;7885;42.596;23.044;2022-08-14T00:13:27;16.33;;;14.83;;
15567;SDS011;7885;42.596;23.044;2022-08-14T00:15:54;15.77;;;14.27;;
15567;SDS011;7885;42.596;23.044;2022-08-14T00:18:24;18.03;;;14.73;;
15567;SDS011;7885;42.596;23.044;2022-08-14T00:20:53;17.80;;;14.77;;
15567;SDS011;7885;42.596;23.044;2022-08-14T00:23:21;16.37;;;14.67;;
15567;SDS011;7885;42.596;23.044;2022-08-14T00:25:49;15.77;;;14.23;;
15567;SDS011;7885;42.596;23.044;2022-08-14T00:28:18;16.43;;;14.53;;
15567;SDS011;7885;42.596;23.044;2022-08-14T00:30:50;16.53;;;14.40;;
15567;SDS011;7885;42.596;23.044;2022-08-14T00:33:17;17.03;;;15.30;;
15567;SDS011;7885;42.596;23.044;2022-08-14T00:35:45;16.00;;;14.53;;
15567;SDS011;7885;42.596;23.044;2022-08-14T00:38:12;23.43;;;16.17;;
15567;SDS011;7885;42.596;23.044;2022-08-14T00:40:39;17.37;;;15.63;;
15567;SDS011;7885;42.596;23.044;2022-08-14T00:43:06;17.20;;;15.60;;
15567;SDS011;7885;42.596;23.044;2022-08-14T00:45:34;18.40;;;15.70;;
15567;SDS011;7885;42.596;23.044;2022-08-14T00:48:01;15.37;;;13.83;;
15567;SDS011;7885;42.596;23.044;2022-08-14T00:50:28;15.50;;;13.97;;
15567;SDS011;7885;42.596;23.044;2022-08-14T00:52:57;15.07;;;13.57;;
15567;SDS011;7885;42.596;23.044;2022-08-14T00:55:25;16.50;;;14.80;;
15567;SDS011;7885;42.596;23.044;2022-08-14T00:57:53;17.40;;;15.90;;
15567;SDS011;7885;42.596;23.044;2022-08-14T01:00:34;16.60;;;14.83;;
15567;SDS011;7885;42.596;23.044;2022-08-14T01:03:01;16.10;;;14.50;;
15567;SDS011;7885;42.596;23.044;2022-08-14T01:05:28;16.70;;;14.33;;
15567;SDS011;7885;42.596;23.044;2022-08-14T01:07:57;16.83;;;14.67;;
15567;SDS011;7885;42.596;23.044;2022-08-14T01:10:25;16.70;;;15.20;;
15567;SDS011;7885;42.596;23.044;2022-08-14T01:13:15;18.37;;;14.33;;
15567;SDS011;7885;42.596;23.044;2022-08-14T01:15:43;15.73;;;14.23;;
15567;SDS011;7885;42.596;23.044;2022-08-14T01:18:11;15.73;;;14.23;;
15567;SDS011;7885;42.596;23.044;2022-08-14T01:20:56;15.93;;;14.23;;
15567;SDS011;7885;42.596;23.044;2022-08-14T01:23:32;16.33;;;14.73;;
15567;SDS011;7885;42.596;23.044;2022-08-14T01:26:00;15.60;;;14.13;;
15567;SDS011;7885;42.596;23.044;2022-08-14T01:28:27;16.40;;;14.87;;
15567;SDS011;7885;42.596;23.044;2022-08-14T01:30:55;16.10;;;14.60;;
15567;SDS011;7885;42.596;23.044;2022-08-14T01:33:23;16.40;;;14.77;;
15567;SDS011;7885;42.596;23.044;2022-08-14T01:35:53;17.30;;;14.60;;
15567;SDS011;7885;42.596;23.044;2022-08-14T01:38:20;16.67;;;15.17;;
15567;SDS011;7885;42.596;23.044;2022-08-14T01:40:49;16.03;;;14.53;;
15567;SDS011;7885;42.596;23.044;2022-08-14T01:43:17;16.23;;;14.53;;
15567;SDS011;7885;42.596;23.044;2022-08-14T01:45:44;16.23;;;14.53;;
15567;SDS011;7885;42.596;23.044;2022-08-14T01:48:17;17.03;;;15.43;;
15567;SDS011;7885;42.596;23.044;2022-08-14T01:50:44;18.73;;;16.07;;
15567;SDS011;7885;42.596;23.044;2022-08-14T01:53:10;17.67;;;15.97;;
15567;SDS011;7885;42.596;23.044;2022-08-14T01:55:37;17.00;;;15.40;;
15567;SDS011;7885;42.596;23.044;2022-08-14T01:58:06;17.83;;;15.60;;
15567;SDS011;7885;42.596;23.044;2022-08-14T02:00:37;16.93;;;15.23;;
15567;SDS011;7885;42.596;23.044;2022-08-14T02:03:04;16.13;;;14.57;;
15567;SDS011;7885;42.596;23.044;2022-08-14T02:05:31;17.00;;;15.30;;
15567;SDS011;7885;42.596;23.044;2022-08-14T02:07:58;15.97;;;14.47;;
15567;SDS011;7885;42.596;23.044;2022-08-14T02:10:24;16.63;;;15.03;;
15567;SDS011;7885;42.596;23.044;2022-08-14T02:12:53;17.00;;;15.27;;
15567;SDS011;7885;42.596;23.044;2022-08-14T02:18:43;15.97;;;14.60;;
15567;SDS011;7885;42.596;23.044;2022-08-14T02:21:10;15.97;;;14.63;;
15567;SDS011;7885;42.596;23.044;2022-08-14T02:23:38;16.97;;;15.37;;
15567;SDS011;7885;42.596;23.044;2022-08-14T02:26:13;16.27;;;14.67;;
15567;SDS011;7885;42.596;23.044;2022-08-14T02:28:42;15.87;;;14.20;;
15567;SDS011;7885;42.596;23.044;2022-08-14T02:31:10;16.17;;;14.40;;
15567;SDS011;7885;42.596;23.044;2022-08-14T02:33:38;15.80;;;14.17;;
15567;SDS011;7885;42.596;23.044;2022-08-14T02:36:08;15.00;;;13.63;;
15567;SDS011;7885;42.596;23.044;2022-08-14T02:38:37;16.80;;;15.20;;
15567;SDS011;7885;42.596;23.044;2022-08-14T02:41:07;16.20;;;14.40;;
15567;SDS011;7885;42.596;23.044;2022-08-14T02:43:34;15.53;;;14.07;;
15567;SDS011;7885;42.596;23.044;2022-08-14T02:46:03;15.67;;;14.03;;
15567;SDS011;7885;42.596;23.044;2022-08-14T02:48:34;17.40;;;15.60;;
15567;SDS011;7885;42.596;23.044;2022-08-14T02:51:04;17.20;;;15.43;;
15567;SDS011;7885;42.596;23.044;2022-08-14T02:53:33;16.47;;;14.90;;
15567;SDS011;7885;42.596;23.044;2022-08-14T02:56:00;15.87;;;14.37;;
15567;SDS011;7885;42.596;23.044;2022-08-14T02:58:28;17.03;;;15.23;;
15567;SDS011;7885;42.596;23.044;2022-08-14T03:00:55;15.70;;;14.10;;
15567;SDS011;7885;42.596;23.044;2022-08-14T03:03:22;17.13;;;14.37;;
15567;SDS011;7885;42.596;23.044;2022-08-14T03:05:49;16.10;;;14.37;;
15567;SDS011;7885;42.596;23.044;2022-08-14T03:08:17;17.37;;;13.97;;
15567;SDS011;7885;42.596;23.044;2022-08-14T03:10:46;16.90;;;15.17;;
15567;SDS011;7885;42.596;23.044;2022-08-14T03:13:13;16.00;;;14.47;;
15567;SDS011;7885;42.596;23.044;2022-08-14T03:15:41;16.27;;;14.63;;
15567;SDS011;7885;42.596;23.044;2022-08-14T03:18:10;15.30;;;13.80;;
15567;SDS011;7885;42.596;23.044;2022-08-14T03:20:37;15.10;;;13.70;;
15567;SDS011;7885;42.596;23.044;2022-08-14T03:23:04;15.70;;;14.27;;
15567;SDS011;7885;42.596;23.044;2022-08-14T03:25:31;16.33;;;14.70;;
15567;SDS011;7885;42.596;23.044;2022-08-14T03:28:01;17.77;;;16.10;;
15567;SDS011;7885;42.596;23.044;2022-08-14T03:30:29;15.43;;;13.90;;
15567;SDS011;7885;42.596;23.044;2022-08-14T03:32:57;17.40;;;14.70;;
15567;SDS011;7885;42.596;23.044;2022-08-14T03:35:24;15.93;;;13.53;;
15567;SDS011;7885;42.596;23.044;2022-08-14T03:37:51;18.13;;;16.20;;
15567;SDS011;7885;42.596;23.044;2022-08-14T03:40:18;17.23;;;15.40;;
15567;SDS011;7885;42.596;23.044;2022-08-14T03:42:46;17.37;;;15.57;;
15567;SDS011;7885;42.596;23.044;2022-08-14T03:45:14;16.57;;;15.07;;
15567;SDS011;7885;42.596;23.044;2022-08-14T03:47:41;17.70;;;15.53;;
15567;SDS011;7885;42.596;23.044;2022-08-14T03:50:08;17.07;;;15.30;;
15567;SDS011;7885;42.596;23.044;2022-08-14T03:52:37;17.43;;;15.63;;
15567;SDS011;7885;42.596;23.044;2022-08-14T03:55:04;18.53;;;16.60;;
15567;SDS011;7885;42.596;23.044;2022-08-14T03:57:33;17.20;;;15.70;;
15567;SDS011;7885;42.596;23.044;2022-08-14T04:00:00;15.57;;;14.17;;
15567;SDS011;7885;42.596;23.044;2022-08-14T04:02:31;14.63;;;13.37;;
15567;SDS011;7885;42.596;23.044;2022-08-14T04:04:58;14.93;;;13.63;;
15567;SDS011;7885;42.596;23.044;2022-08-14T04:07:26;14.10;;;12.90;;
15567;SDS011;7885;42.596;23.044;2022-08-14T04:09:53;13.47;;;12.37;;
15567;SDS011;7885;42.596;23.044;2022-08-14T04:12:19;14.40;;;13.00;;
15567;SDS011;7885;42.596;23.044;2022-08-14T04:14:46;13.90;;;12.70;;
15567;SDS011;7885;42.596;23.044;2022-08-14T04:17:13;13.63;;;12.53;;
15567;SDS011;7885;42.596;23.044;2022-08-14T04:19:41;13.67;;;12.27;;
15567;SDS011;7885;42.596;23.044;2022-08-14T04:22:08;14.30;;;12.80;;
15567;SDS011;7885;42.596;23.044;2022-08-14T04:24:35;13.50;;;12.20;;
15567;SDS011;7885;42.596;23.044;2022-08-14T04:27:02;13.97;;;12.77;;
15567;SDS011;7885;42.596;23.044;2022-08-14T04:29:29;15.00;;;13.67;;
15567;SDS011;7885;42.596;23.044;2022-08-14T04:31:56;14.10;;;13.00;;
15567;SDS011;7885;42.596;23.044;2022-08-14T04:34:23;14.67;;;13.47;;
15567;SDS011;7885;42.596;23.044;2022-08-14T04:36:51;13.87;;;12.67;;
15567;SDS011;7885;42.596;23.044;2022-08-14T04:39:35;14.23;;;12.80;;
15567;SDS011;7885;42.596;23.044;2022-08-14T04:42:19;13.23;;;12.03;;
15567;SDS011;7885;42.596;23.044;2022-08-14T04:45:03;14.63;;;13.17;;
15567;SDS011;7885;42.596;23.044;2022-08-14T04:47:31;14.90;;;13.60;;
15567;SDS011;7885;42.596;23.044;2022-08-14T04:50:15;15.00;;;13.60;;
15567;SDS011;7885;42.596;23.044;2022-08-14T04:52:43;15.17;;;13.77;;
15567;SDS011;7885;42.596;23.044;2022-08-14T04:55:13;14.20;;;13.10;;
15567;SDS011;7885;42.596;23.044;2022-08-14T05:00:29;15.83;;;14.27;;
15567;SDS011;7885;42.596;23.044;2022-08-14T05:02:56;16.73;;;15.33;;
15567;SDS011;7885;42.596;23.044;2022-08-14T05:05:27;16.40;;;14.90;;
15567;SDS011;7885;42.596;23.044;2022-08-14T05:07:55;16.23;;;14.83;;
15567;SDS011;7885;42.596;23.044;2022-08-14T05:10:22;16.53;;;15.03;;
15567;SDS011;7885;42.596;23.044;2022-08-14T05:12:50;16.77;;;15.37;;
15567;SDS011;7885;42.596;23.044;2022-08-14T05:15:17;16.07;;;14.57;;
15567;SDS011;7885;42.596;23.044;2022-08-14T05:17:45;16.97;;;15.40;;
15567;SDS011;7885;42.596;23.044;2022-08-14T05:20:13;17.73;;;16.10;;
15567;SDS011;7885;42.596;23.044;2022-08-14T05:22:40;17.63;;;16.13;;
15567;SDS011;7885;42.596;23.044;2022-08-14T05:25:08;16.77;;;15.27;;
15567;SDS011;7885;42.596;23.044;2022-08-14T05:27:35;17.10;;;15.33;;
15567;SDS011;7885;42.596;23.044;2022-08-14T05:30:02;17.70;;;16.00;;
15567;SDS011;7885;42.596;23.044;2022-08-14T05:32:30;18.47;;;16.77;;
15567;SDS011;7885;42.596;23.044;2022-08-14T05:34:57;18.87;;;16.90;;
15567;SDS011;7885;42.596;23.044;2022-08-14T05:37:24;18.00;;;16.30;;
15567;SDS011;7885;42.596;23.044;2022-08-14T05:42:39;17.00;;;15.50;;
15567;SDS011;7885;42.596;23.044;2022-08-14T05:45:06;15.50;;;14.03;;
15567;SDS011;7885;42.596;23.044;2022-08-14T05:47:37;16.03;;;14.53;;
15567;SDS011;7885;42.596;23.044;2022-08-14T05:50:08;15.37;;;13.93;;
15567;SDS011;7885;42.596;23.044;2022-08-14T05:52:36;15.57;;;14.17;;
15567;SDS011;7885;42.596;23.044;2022-08-14T05:55:03;15.87;;;14.40;;
15567;SDS011;7885;42.596;23.044;2022-08-14T05:57:33;16.20;;;14.67;;
15567;SDS011;7885;42.596;23.044;2022-08-14T06:00:00;4.67;;;4.27;;
15567;SDS011;7885;42.596;23.044;2022-08-14T06:02:27;6.67;;;4.33;;
15567;SDS011;7885;42.596;23.044;2022-08-14T06:04:57;6.50;;;5.90;;
15567;SDS011;7885;42.596;23.044;2022-08-14T06:07:25;6.93;;;6.20;;
15567;SDS011;7885;42.596;23.044;2022-08-14T06:09:52;7.67;;;6.87;;
15567;SDS011;7885;42.596;23.044;2022-08-14T06:12:19;7.97;;;6.97;;
15567;SDS011;7885;42.596;23.044;2022-08-14T06:14:47;9.03;;;7.87;;
15567;SDS011;7885;42.596;23.044;2022-08-14T06:17:14;9.63;;;8.73;;
15567;SDS011;7885;42.596;23.044;2022-08-14T06:19:40;11.93;;;10.83;;
15567;SDS011;7885;42.596;23.044;2022-08-14T06:22:07;11.60;;;10.50;;
15567;SDS011;7885;42.596;23.044;2022-08-14T06:24:34;12.70;;;11.60;;
15567;SDS011;7885;42.596;23.044;2022-08-14T06:27:01;9.93;;;9.03;;
15567;SDS011;7885;42.596;23.044;2022-08-14T06:29:28;6.27;;;5.70;;
15567;SDS011;7885;42.596;23.044;2022-08-14T06:31:56;5.20;;;4.80;;
15567;SDS011;7885;42.596;23.044;2022-08-14T06:34:23;5.90;;;5.40;;
15567;SDS011;7885;42.596;23.044;2022-08-14T06:36:50;6.03;;;5.53;;
15567;SDS011;7885;42.596;23.044;2022-08-14T06:39:17;3.60;;;3.30;;
15567;SDS011;7885;42.596;23.044;2022-08-14T06:41:44;4.17;;;3.60;;
15567;SDS011;7885;42.596;23.044;2022-08-14T06:44:11;7.40;;;3.83;;
15567;SDS011;7885;42.596;23.044;2022-08-14T06:46:37;4.13;;;3.73;;
15567;SDS011;7885;42.596;23.044;2022-08-14T06:49:06;3.93;;;3.60;;
15567;SDS011;7885;42.596;23.044;2022-08-14T06:51:33;9.97;;;4.37;;
15567;SDS011;7885;42.596;23.044;2022-08-14T06:54:00;2.57;;;2.37;;
15567;SDS011;7885;42.596;23.044;2022-08-14T06:56:27;2.10;;;1.83;;
15567;SDS011;7885;42.596;23.044;2022-08-14T06:58:54;2.60;;;2.40;;
15567;SDS011;7885;42.596;23.044;2022-08-14T07:01:21;2.27;;;2.07;;
15567;SDS011;7885;42.596;23.044;2022-08-14T07:04:12;2.13;;;2.03;;
15567;SDS011;7885;42.596;23.044;2022-08-14T07:06:56;2.50;;;2.30;;
15567;SDS011;7885;42.596;23.044;2022-08-14T07:09:22;3.47;;;2.50;;
15567;SDS011;7885;42.596;23.044;2022-08-14T07:11:49;3.10;;;2.80;;
15567;SDS011;7885;42.596;23.044;2022-08-14T07:14:17;3.87;;;3.50;;
15567;SDS011;7885;42.596;23.044;2022-08-14T07:16:44;4.00;;;3.70;;
15567;SDS011;7885;42.596;23.044;2022-08-14T07:19:15;4.37;;;3.67;;
15567;SDS011;7885;42.596;23.044;2022-08-14T07:21:42;3.37;;;3.07;;
15567;SDS011;7885;42.596;23.044;2022-08-14T07:24:09;2.80;;;2.60;;
15567;SDS011;7885;42.596;23.044;2022-08-14T07:26:35;3.43;;;2.70;;
15567;SDS011;7885;42.596;23.044;2022-08-14T07:29:02;2.10;;;2.00;;
15567;SDS011;7885;42.596;23.044;2022-08-14T07:31:29;1.70;;;1.60;;
15567;SDS011;7885;42.596;23.044;2022-08-14T07:33:56;2.10;;;1.97;;
15567;SDS011;7885;42.596;23.044;2022-08-14T07:36:24;2.30;;;2.10;;
15567;SDS011;7885;42.596;23.044;2022-08-14T07:38:52;2.57;;;2.30;;
15567;SDS011;7885;42.596;23.044;2022-08-14T07:41:18;2.27;;;2.17;;
15567;SDS011;7885;42.596;23.044;2022-08-14T07:43:45;2.80;;;2.17;;
15567;SDS011;7885;42.596;23.044;2022-08-14T07:46:12;2.50;;;2.30;;
15567;SDS011;7885;42.596;23.044;2022-08-14T07:48:40;2.47;;;2.27;;
15567;SDS011;7885;42.596;23.044;2022-08-14T07:51:08;2.00;;;1.90;;
15567;SDS011;7885;42.596;23.044;2022-08-14T07:53:36;2.53;;;2.33;;
15567;SDS011;7885;42.596;23.044;2022-08-14T07:56:04;3.50;;;3.20;;
15567;SDS011;7885;42.596;23.044;2022-08-14T07:58:31;2.73;;;2.53;;
15567;SDS011;7885;42.596;23.044;2022-08-14T08:00:58;3.07;;;2.87;;
15567;SDS011;7885;42.596;23.044;2022-08-14T08:03:26;3.10;;;2.90;;
15567;SDS011;7885;42.596;23.044;2022-08-14T08:05:56;3.27;;;2.93;;
15567;SDS011;7885;42.596;23.044;2022-08-14T08:08:23;3.30;;;3.00;;
15567;SDS011;7885;42.596;23.044;2022-08-14T08:10:52;3.87;;;3.57;;
15567;SDS011;7885;42.596;23.044;2022-08-14T08:13:21;3.57;;;3.27;;
15567;SDS011;7885;42.596;23.044;2022-08-14T08:15:48;5.70;;;4.57;;
15567;SDS011;7885;42.596;23.044;2022-08-14T08:18:18;4.77;;;4.37;;
15567;SDS011;7885;42.596;23.044;2022-08-14T08:20:45;3.83;;;3.53;;
15567;SDS011;7885;42.596;23.044;2022-08-14T08:23:14;4.30;;;3.90;;
15567;SDS011;7885;42.596;23.044;2022-08-14T08:25:43;4.23;;;3.90;;
15567;SDS011;7885;42.596;23.044;2022-08-14T08:28:16;4.47;;;3.30;;
15567;SDS011;7885;42.596;23.044;2022-08-14T08:30:47;3.90;;;3.70;;
15567;SDS011;7885;42.596;23.044;2022-08-14T08:33:15;3.77;;;3.47;;
15567;SDS011;7885;42.596;23.044;2022-08-14T08:35:43;3.77;;;3.47;;
15567;SDS011;7885;42.596;23.044;2022-08-14T08:38:12;4.20;;;3.80;;
15567;SDS011;7885;42.596;23.044;2022-08-14T08:40:41;3.90;;;3.60;;
15567;SDS011;7885;42.596;23.044;2022-08-14T08:43:17;3.67;;;3.43;;
15567;SDS011;7885;42.596;23.044;2022-08-14T08:45:51;4.20;;;3.90;;
15567;SDS011;7885;42.596;23.044;2022-08-14T08:48:19;4.33;;;4.03;;
15567;SDS011;7885;42.596;23.044;2022-08-14T08:50:46;4.10;;;3.80;;
15567;SDS011;7885;42.596;23.044;2022-08-14T08:53:13;3.80;;;3.50;;
15567;SDS011;7885;42.596;23.044;2022-08-14T08:55:41;4.00;;;3.70;;
15567;SDS011;7885;42.596;23.044;2022-08-14T08:58:09;3.90;;;3.60;;
15567;SDS011;7885;42.596;23.044;2022-08-14T09:00:39;4.10;;;3.80;;
15567;SDS011;7885;42.596;23.044;2022-08-14T09:03:08;3.97;;;3.67;;
15567;SDS011;7885;42.596;23.044;2022-08-14T09:05:38;3.80;;;3.50;;
15567;SDS011;7885;42.596;23.044;2022-08-14T09:08:16;3.97;;;3.67;;
15567;SDS011;7885;42.596;23.044;2022-08-14T09:10:44;3.60;;;3.30;;
15567;SDS011;7885;42.596;23.044;2022-08-14T09:13:12;3.43;;;3.23;;
15567;SDS011;7885;42.596;23.044;2022-08-14T09:15:41;4.13;;;3.77;;
15567;SDS011;7885;42.596;23.044;2022-08-14T09:21:31;3.73;;;3.07;;
15567;SDS011;7885;42.596;23.044;2022-08-14T09:23:59;3.60;;;3.30;;
15567;SDS011;7885;42.596;23.044;2022-08-14T09:26:26;3.60;;;3.40;;
15567;SDS011;7885;42.596;23.044;2022-08-14T09:28:53;3.80;;;3.50;;
15567;SDS011;7885;42.596;23.044;2022-08-14T09:31:37;3.40;;;3.20;;
15567;SDS011;7885;42.596;23.044;2022-08-14T09:34:11;3.57;;;3.33;;
15567;SDS011;7885;42.596;23.044;2022-08-14T09:36:49;3.70;;;3.40;;
15567;SDS011;7885;42.596;23.044;2022-08-14T09:39:31;4.37;;;4.07;;
15567;SDS011;7885;42.596;23.044;2022-08-14T09:42:15;4.87;;;4.47;;
15567;SDS011;7885;42.596;23.044;2022-08-14T09:44:59;4.20;;;3.90;;
15567;SDS011;7885;42.596;23.044;2022-08-14T09:47:43;3.97;;;3.67;;
15567;SDS011;7885;42.596;23.044;2022-08-14T09:50:15;3.37;;;3.07;;
15567;SDS011;7885;42.596;23.044;2022-08-14T09:52:48;3.10;;;2.90;;
15567;SDS011;7885;42.596;23.044;2022-08-14T09:55:18;3.13;;;2.80;;
15567;SDS011;7885;42.596;23.044;2022-08-14T09:57:46;2.77;;;2.57;;
15567;SDS011;7885;42.596;23.044;2022-08-14T10:00:13;2.55;;;2.35;;
15567;SDS011;7885;42.596;23.044;2022-08-14T10:02:51;2.63;;;2.42;;
15567;SDS011;7885;42.596;23.044;2022-08-14T10:05:27;2.45;;;2.28;;
15567;SDS011;7885;42.596;23.044;2022-08-14T10:07:55;2.65;;;2.45;;
15567;SDS011;7885;42.596;23.044;2022-08-14T10:10:26;3.72;;;2.80;;
15567;SDS011;7885;42.596;23.044;2022-08-14T10:12:54;2.97;;;2.70;;
15567;SDS011;7885;42.596;23.044;2022-08-14T10:15:22;2.80;;;2.60;;
15567;SDS011;7885;42.596;23.044;2022-08-14T10:18:03;2.40;;;2.25;;
15567;SDS011;7885;42.596;23.044;2022-08-14T10:20:32;2.40;;;2.28;;
15567;SDS011;7885;42.596;23.044;2022-08-14T10:23:07;2.03;;;1.90;;
15567;SDS011;7885;42.596;23.044;2022-08-14T10:25:38;1.95;;;1.83;;
15567;SDS011;7885;42.596;23.044;2022-08-14T10:28:05;2.03;;;1.92;;
15567;SDS011;7885;42.596;23.044;2022-08-14T10:30:33;2.05;;;1.95;;
15567;SDS011;7885;42.596;23.044;2022-08-14T10:33:03;2.40;;;2.30;;
15567;SDS011;7885;42.596;23.044;2022-08-14T10:35:38;2.17;;;2.08;;
15567;SDS011;7885;42.596;23.044;2022-08-14T10:38:05;2.20;;;2.00;;
15567;SDS011;7885;42.596;23.044;2022-08-14T10:54:04;2.05;;;1.95;;
15567;SDS011;7885;42.596;23.044;2022-08-14T10:56:33;2.13;;;2.03;;
15567;SDS011;7885;42.596;23.044;2022-08-14T10:59:01;2.30;;;2.20;;
15567;SDS011;7885;42.596;23.044;2022-08-14T11:01:29;2.05;;;1.95;;
15567;SDS011;7885;42.596;23.044;2022-08-14T11:03:56;2.10;;;2.00;;
15567;SDS011;7885;42.596;23.044;2022-08-14T11:06:23;2.55;;;2.22;;
15567;SDS011;7885;42.596;23.044;2022-08-14T11:08:50;2.40;;;2.30;;
15567;SDS011;7885;42.596;23.044;2022-08-14T11:11:19;2.25;;;2.15;;
15567;SDS011;7885;42.596;23.044;2022-08-14T11:13:47;2.30;;;2.20;;
15567;SDS011;7885;42.596;23.044;2022-08-14T11:16:14;2.08;;;1.98;;
15567;SDS011;7885;42.596;23.044;2022-08-14T11:18:43;2.40;;;2.20;;
15567;SDS011;7885;42.596;23.044;2022-08-14T11:21:14;2.72;;;1.98;;
15567;SDS011;7885;42.596;23.044;2022-08-14T11:23:43;2.13;;;2.03;;
15567;SDS011;7885;42.596;23.044;2022-08-14T11:26:14;3.28;;;2.00;;
15567;SDS011;7885;42.596;23.044;2022-08-14T11:28:46;2.20;;;2.10;;
15567;SDS011;7885;42.596;23.044;2022-08-14T11:31:14;2.47;;;2.30;;
15567;SDS011;7885;42.596;23.044;2022-08-14T11:33:43;2.22;;;2.10;;
15567;SDS011;7885;42.596;23.044;2022-08-14T11:36:13;2.80;;;2.50;;
15567;SDS011;7885;42.596;23.044;2022-08-14T11:38:41;2.40;;;2.22;;
15567;SDS011;7885;42.596;23.044;2022-08-14T11:41:09;2.35;;;2.25;;
15567;SDS011;7885;42.596;23.044;2022-08-14T11:43:37;2.30;;;2.20;;
15567;SDS011;7885;42.596;23.044;2022-08-14T11:46:07;2.78;;;2.38;;
15567;SDS011;7885;42.596;23.044;2022-08-14T11:48:43;2.47;;;2.30;;
15567;SDS011;7885;42.596;23.044;2022-08-14T11:51:12;2.28;;;2.17;;
15567;SDS011;7885;42.596;23.044;2022-08-14T11:53:49;2.25;;;2.15;;
15567;SDS011;7885;42.596;23.044;2022-08-14T11:56:17;2.67;;;2.47;;
15567;SDS011;7885;42.596;23.044;2022-08-14T11:58:44;2.60;;;2.40;;
15567;SDS011;7885;42.596;23.044;2022-08-14T12:01:22;2.40;;;2.20;;
15567;SDS011;7885;42.596;23.044;2022-08-14T12:03:52;2.47;;;2.30;;
15567;SDS011;7885;42.596;23.044;2022-08-14T12:06:20;2.45;;;2.33;;
15567;SDS011;7885;42.596;23.044;2022-08-14T12:08:47;2.60;;;2.40;;
15567;SDS011;7885;42.596;23.044;2022-08-14T12:11:18;2.90;;;2.22;;
15567;SDS011;7885;42.596;23.044;2022-08-14T12:13:45;4.82;;;4.30;;
15567;SDS011;7885;42.596;23.044;2022-08-14T12:16:14;3.10;;;2.85;;
15567;SDS011;7885;42.596;23.044;2022-08-14T12:18:43;2.65;;;2.50;;
15567;SDS011;7885;42.596;23.044;2022-08-14T12:21:13;2.42;;;2.33;;
15567;SDS011;7885;42.596;23.044;2022-08-14T12:23:41;2.63;;;2.42;;
15567;SDS011;7885;42.596;23.044;2022-08-14T12:26:09;3.08;;;2.50;;
15567;SDS011;7885;42.596;23.044;2022-08-14T12:28:40;2.83;;;2.30;;
15567;SDS011;7885;42.596;23.044;2022-08-14T12:31:11;2.75;;;2.00;;
15567;SDS011;7885;42.596;23.044;2022-08-14T12:33:53;2.80;;;2.00;;
15567;SDS011;7885;42.596;23.044;2022-08-14T12:36:21;3.53;;;2.77;;
15567;SDS011;7885;42.596;23.044;2022-08-14T12:38:57;2.00;;;1.90;;
15567;SDS011;7885;42.596;23.044;2022-08-14T12:41:25;2.33;;;2.10;;
15567;SDS011;7885;42.596;23.044;2022-08-14T12:43:55;2.50;;;2.30;;
15567;SDS011;7885;42.596;23.044;2022-08-14T12:46:23;3.00;;;2.70;;
15567;SDS011;7885;42.596;23.044;2022-08-14T12:48:53;3.30;;;2.00;;
15567;SDS011;7885;42.596;23.044;2022-08-14T12:54:42;2.78;;;2.10;;
15567;SDS011;7885;42.596;23.044;2022-08-14T12:57:10;2.05;;;1.95;;
15567;SDS011;7885;42.596;23.044;2022-08-14T12:59:38;3.03;;;2.70;;
15567;SDS011;7885;42.596;23.044;2022-08-14T13:02:06;2.10;;;2.00;;
15567;SDS011;7885;42.596;23.044;2022-08-14T13:04:34;1.92;;;1.83;;
15567;SDS011;7885;42.596;23.044;2022-08-14T13:07:02;2.05;;;1.90;;
15567;SDS011;7885;42.596;23.044;2022-08-14T13:09:32;2.20;;;2.10;;
15567;SDS011;7885;42.596;23.044;2022-08-14T13:12:00;2.10;;;2.00;;
15567;SDS011;7885;42.596;23.044;2022-08-14T13:14:29;2.50;;;2.40;;
15567;SDS011;7885;42.596;23.044;2022-08-14T13:16:58;3.30;;;2.28;;
15567;SDS011;7885;42.596;23.044;2022-08-14T13:19:27;3.58;;;2.28;;
15567;SDS011;7885;42.596;23.044;2022-08-14T13:21:56;2.03;;;1.92;;
15567;SDS011;7885;42.596;23.044;2022-08-14T13:24:23;2.20;;;2.10;;
15567;SDS011;7885;42.596;23.044;2022-08-14T13:26:52;2.22;;;2.13;;
15567;SDS011;7885;42.596;23.044;2022-08-14T13:29:23;2.75;;;2.13;;
15567;SDS011;7885;42.596;23.044;2022-08-14T13:31:53;2.25;;;2.15;;
15567;SDS011;7885;42.596;23.044;2022-08-14T13:34:23;2.10;;;2.00;;
15567;SDS011;7885;42.596;23.044;2022-08-14T13:36:52;2.07;;;1.97;;
15567;SDS011;7885;42.596;23.044;2022-08-14T13:39:22;2.00;;;1.90;;
15567;SDS011;7885;42.596;23.044;2022-08-14T13:41:50;1.98;;;1.88;;
15567;SDS011;7885;42.596;23.044;2022-08-14T13:44:17;2.15;;;2.05;;
15567;SDS011;7885;42.596;23.044;2022-08-14T13:46:46;4.83;;;2.53;;
15567;SDS011;7885;42.596;23.044;2022-08-14T13:49:13;2.28;;;2.15;;
15567;SDS011;7885;42.596;23.044;2022-08-14T13:51:42;3.67;;;2.63;;
15567;SDS011;7885;42.596;23.044;2022-08-14T13:54:15;2.95;;;2.40;;
15567;SDS011;7885;42.596;23.044;2022-08-14T13:56:46;2.22;;;2.13;;
15567;SDS011;7885;42.596;23.044;2022-08-14T13:59:14;2.40;;;2.13;;
15567;SDS011;7885;42.596;23.044;2022-08-14T14:01:41;2.70;;;2.50;;
15567;SDS011;7885;42.596;23.044;2022-08-14T14:04:13;2.20;;;2.00;;
15567;SDS011;7885;42.596;23.044;2022-08-14T14:06:42;2.60;;;2.40;;
15567;SDS011;7885;42.596;23.044;2022-08-14T14:09:09;3.10;;;2.53;;
15567;SDS011;7885;42.596;23.044;2022-08-14T14:11:37;3.03;;;2.10;;
15567;SDS011;7885;42.596;23.044;2022-08-14T14:14:05;2.40;;;2.20;;
15567;SDS011;7885;42.596;23.044;2022-08-14T14:16:32;2.20;;;2.00;;
15567;SDS011;7885;42.596;23.044;2022-08-14T14:19:00;3.10;;;2.90;;
15567;SDS011;7885;42.596;23.044;2022-08-14T14:21:28;7.33;;;6.73;;
15567;SDS011;7885;42.596;23.044;2022-08-14T14:23:56;4.13;;;3.67;;
15567;SDS011;7885;42.596;23.044;2022-08-14T14:26:23;2.13;;;2.03;;
15567;SDS011;7885;42.596;23.044;2022-08-14T14:28:50;2.03;;;1.93;;
15567;SDS011;7885;42.596;23.044;2022-08-14T14:31:22;3.30;;;2.83;;
15567;SDS011;7885;42.596;23.044;2022-08-14T14:33:54;2.70;;;2.40;;
15567;SDS011;7885;42.596;23.044;2022-08-14T14:36:23;2.27;;;2.17;;
15567;SDS011;7885;42.596;23.044;2022-08-14T14:38:52;2.10;;;2.00;;
15567;SDS011;7885;42.596;23.044;2022-08-14T14:41:20;2.37;;;2.27;;
15567;SDS011;7885;42.596;23.044;2022-08-14T14:47:12;2.57;;;2.37;;
15567;SDS011;7885;42.596;23.044;2022-08-14T14:49:45;3.60;;;2.40;;
15567;SDS011;7885;42.596;23.044;2022-08-14T14:52:14;4.20;;;2.50;;
15567;SDS011;7885;42.596;23.044;2022-08-14T14:54:41;6.10;;;2.83;;
15567;SDS011;7885;42.596;23.044;2022-08-14T14:57:10;6.30;;;2.50;;
15567;SDS011;7885;42.596;23.044;2022-08-14T14:59:38;4.70;;;4.30;;
15567;SDS011;7885;42.596;23.044;2022-08-14T15:02:06;3.70;;;3.40;;
15567;SDS011;7885;42.596;23.044;2022-08-14T15:04:35;3.20;;;2.87;;
15567;SDS011;7885;42.596;23.044;2022-08-14T15:07:03;20.93;;;13.40;;
15567;SDS011;7885;42.596;23.044;2022-08-14T15:09:32;8.93;;;6.70;;
15567;SDS011;7885;42.596;23.044;2022-08-14T15:11:59;9.03;;;6.40;;
15567;SDS011;7885;42.596;23.044;2022-08-14T15:14:26;8.33;;;6.20;;
15567;SDS011;7885;42.596;23.044;2022-08-14T15:16:54;14.43;;;9.77;;
15567;SDS011;7885;42.596;23.044;2022-08-14T15:19:21;5.87;;;4.90;;